Time;durP1;ratioP1;P1;durP2;ratioP2;P2;SDS_P1;SDS_P2;PMS_P1;PMS_P2;Temp;Humidity;BMP_temperature;BMP_pressure;BME280_temperature;BME280_humidity;BME280_pressure;Samples;Min_cycle;Max_cycle;Signal;HPM_P1;HPM_P2
2022/01/14 00:01:07;;;;;;;50.87;22.17;;;;;;;-0.77;100.00;97610.25;5052003;28;20111;-61
2022/01/14 00:03:34;;;;;;;56.33;22.50;;;;;;;-0.82;100.00;97573.38;5051641;28;20044;-61
2022/01/14 00:06:01;;;;;;;62.37;23.53;;;;;;;-0.78;100.00;97568.97;5050414;28;20083;-61
2022/01/14 00:08:28;;;;;;;55.33;22.03;;;;;;;-0.83;100.00;97579.41;5051900;28;20124;-61
2022/01/14 00:10:57;;;;;;;49.80;21.13;;;;;;;-0.82;100.00;97600.91;5051711;28;20041;-62
2022/01/14 00:13:47;;;;;;;59.73;26.67;;;;;;;-0.85;100.00;97519.22;5051685;28;20048;-61
2022/01/14 00:16:15;;;;;;;59.73;23.47;;;;;;;-0.84;100.00;97582.88;5051142;28;20052;-60
2022/01/14 00:18:42;;;;;;;55.30;26.37;;;;;;;-0.86;100.00;97578.66;5051176;28;20757;-61
2022/01/14 00:21:09;;;;;;;65.97;27.57;;;;;;;-0.87;100.00;97592.47;5051561;28;20056;-61
2022/01/14 00:23:39;;;;;;;66.10;24.87;;;;;;;-0.89;100.00;97592.50;5051250;28;20219;-64
2022/01/14 00:31:48;;;;;;;59.73;23.70;;;;;;;-0.83;100.00;97610.38;5051301;28;20029;-63
2022/01/14 00:34:16;;;;;;;67.63;25.87;;;;;;;-0.85;100.00;97607.03;5050561;28;20037;-63
2022/01/14 00:36:44;;;;;;;63.00;24.17;;;;;;;-0.86;100.00;97586.41;5051068;28;20041;-63
2022/01/14 00:39:13;;;;;;;55.73;22.83;;;;;;;-0.89;100.00;97605.41;5050337;28;20053;-63
2022/01/14 00:41:42;;;;;;;60.90;22.47;;;;;;;-0.86;100.00;97620.81;5051265;28;20048;-63
2022/01/14 00:44:12;;;;;;;61.37;22.27;;;;;;;-0.86;100.00;97638.91;5051008;28;20053;-63
2022/01/14 00:46:41;;;;;;;53.83;21.33;;;;;;;-0.84;100.00;97621.63;5051855;28;20087;-63
2022/01/14 00:49:08;;;;;;;63.77;24.53;;;;;;;-0.85;100.00;97619.94;5051344;28;20040;-63
2022/01/14 00:51:36;;;;;;;50.10;21.20;;;;;;;-0.80;100.00;97614.66;5051345;28;20131;-60
2022/01/14 00:54:03;;;;;;;56.13;21.97;;;;;;;-0.80;100.00;97614.66;5051023;28;20052;-61
2022/01/14 00:56:34;;;;;;;60.63;23.27;;;;;;;-0.79;100.00;97604.25;5049758;28;20127;-61
2022/01/14 00:59:15;;;;;;;65.57;23.77;;;;;;;-0.73;100.00;97601.53;5050652;28;20049;-61
2022/01/14 01:01:45;;;;;;;61.90;24.40;;;;;;;-0.75;100.00;97613.66;5050653;28;20505;-61
2022/01/14 01:04:14;;;;;;;60.17;22.40;;;;;;;-0.75;100.00;97597.28;5050308;28;20526;-61
2022/01/14 01:06:42;;;;;;;56.73;22.00;;;;;;;-0.73;100.00;97606.69;5050869;28;20053;-61
2022/01/14 01:09:11;;;;;;;54.40;22.97;;;;;;;-0.69;100.00;97615.22;5049125;28;20099;-61
2022/01/14 01:11:43;;;;;;;51.93;20.50;;;;;;;-0.70;100.00;97618.66;5049492;28;20033;-61
2022/01/14 01:14:13;;;;;;;54.77;21.33;;;;;;;-0.70;100.00;97606.63;5049950;28;20052;-61
2022/01/14 01:16:42;;;;;;;53.60;22.77;;;;;;;-0.67;100.00;97613.44;5049308;28;20068;-61
2022/01/14 01:19:11;;;;;;;59.77;22.43;;;;;;;-0.65;100.00;97622.00;5050944;28;20087;-61
2022/01/14 01:21:38;;;;;;;62.90;23.23;;;;;;;-0.68;100.00;97615.16;5051234;28;20115;-61
2022/01/14 01:24:10;;;;;;;62.53;24.43;;;;;;;-0.64;100.00;97616.78;5049371;28;20184;-60
2022/01/14 01:26:39;;;;;;;52.50;23.70;;;;;;;-0.68;100.00;97604.81;5050508;28;20044;-61
2022/01/14 01:29:30;;;;;;;59.53;23.33;;;;;;;-0.67;100.00;97593.63;5049836;28;20049;-63
2022/01/14 01:31:57;;;;;;;60.33;22.17;;;;;;;-0.69;100.00;97602.31;5050311;28;20395;-60
2022/01/14 01:34:27;;;;;;;62.93;25.33;;;;;;;-0.67;100.00;97592.75;5050072;28;20095;-60
2022/01/14 01:36:55;;;;;;;66.43;25.23;;;;;;;-0.68;100.00;97589.31;5050370;28;20065;-61
2022/01/14 01:39:24;;;;;;;64.90;23.20;;;;;;;-0.64;100.00;97584.94;5050123;28;20405;-60
2022/01/14 01:41:54;;;;;;;51.87;23.13;;;;;;;-0.66;100.00;97584.97;5050666;28;20037;-61
2022/01/14 01:44:23;;;;;;;65.67;23.00;;;;;;;-0.65;100.00;97589.25;5049546;28;20048;-60
2022/01/14 01:46:51;;;;;;;65.03;23.63;;;;;;;-0.64;100.00;97580.63;5050564;28;20047;-61
2022/01/14 01:49:20;;;;;;;65.03;23.37;;;;;;;-0.61;100.00;97559.84;5049894;28;20057;-60
2022/01/14 01:51:50;;;;;;;52.07;22.60;;;;;;;-0.62;100.00;97558.19;5049866;28;20135;-60
2022/01/14 01:54:18;;;;;;;59.60;23.23;;;;;;;-0.63;100.00;97563.38;5049659;28;20056;-60
2022/01/14 01:56:45;;;;;;;62.53;23.17;;;;;;;-0.62;100.00;97568.50;5050404;28;20098;-60
2022/01/14 01:59:13;;;;;;;49.13;20.67;;;;;;;-0.63;100.00;97576.28;5049290;28;20057;-61
2022/01/14 02:01:41;;;;;;;65.77;22.23;;;;;;;-0.60;100.00;97571.91;5048008;28;20107;-60
2022/01/14 02:04:08;;;;;;;47.63;17.37;;;;;;;-0.61;100.00;97570.19;5049798;28;20044;-60
2022/01/14 02:06:37;;;;;;;40.57;18.07;;;;;;;-0.59;100.00;97546.91;5049351;28;20462;-60
2022/01/14 02:09:06;;;;;;;60.17;23.23;;;;;;;-0.61;100.00;97565.03;5049706;28;20044;-61
2022/01/14 02:11:33;;;;;;;53.20;23.10;;;;;;;-0.59;100.00;97558.09;5048758;28;20456;-60
2022/01/14 02:14:05;;;;;;;50.97;20.17;;;;;;;-0.60;100.00;97551.25;5049004;28;20047;-60
2022/01/14 02:16:35;;;;;;;47.17;20.50;;;;;;;-0.56;100.00;97539.06;5049119;28;20073;-61
2022/01/14 02:19:17;;;;;;;52.10;22.07;;;;;;;-0.57;100.00;97535.63;5049868;28;20538;-60
2022/01/14 02:24:57;;;;;;;45.37;19.07;;;;;;;-0.58;100.00;97510.69;5050756;28;20378;-61
2022/01/14 02:27:24;;;;;;;29.53;13.17;;;;;;;-0.57;100.00;97494.31;5049259;28;20045;-60
2022/01/14 02:29:51;;;;;;;45.17;17.90;;;;;;;-0.55;100.00;97512.34;5048684;28;20059;-60
2022/01/14 02:32:18;;;;;;;42.33;17.73;;;;;;;-0.57;100.00;97499.47;5049527;28;20132;-61
2022/01/14 02:34:45;;;;;;;41.93;18.00;;;;;;;-0.53;100.00;97497.66;5049282;28;20055;-61
2022/01/14 02:37:19;;;;;;;39.47;16.27;;;;;;;-0.53;100.00;97493.34;5049298;28;20076;-61
2022/01/14 02:39:47;;;;;;;27.83;14.00;;;;;;;-0.54;100.00;97468.38;5049329;28;20448;-61
2022/01/14 02:42:14;;;;;;;33.67;16.43;;;;;;;-0.51;100.00;97499.31;5053357;28;20052;-61
2022/01/14 02:44:41;;;;;;;26.97;12.60;;;;;;;-0.52;100.00;97482.13;5053252;28;20114;-62
2022/01/14 02:47:08;;;;;;;38.83;15.97;;;;;;;-0.51;100.00;97476.06;5053014;28;20561;-61
2022/01/14 02:49:37;;;;;;;37.90;16.90;;;;;;;-0.52;100.00;97482.13;5053304;28;20067;-62
2022/01/14 02:52:07;;;;;;;35.63;16.07;;;;;;;-0.50;100.00;97464.81;5053121;28;20517;-62
2022/01/14 02:55:02;;;;;;;43.27;17.20;;;;;;;-0.46;100.00;97455.25;5052933;28;20045;-62
2022/01/14 02:57:28;;;;;;;45.47;21.77;;;;;;;-0.47;100.00;97477.66;5052338;28;20060;-62
2022/01/14 02:59:58;;;;;;;34.57;15.80;;;;;;;-0.49;100.00;97461.38;5052788;28;20041;-62
2022/01/14 03:02:27;;;;;;;36.17;16.67;;;;;;;-0.50;100.00;97454.47;5051883;28;20045;-61
2022/01/14 03:04:55;;;;;;;41.27;18.13;;;;;;;-0.46;100.00;97450.09;5052694;28;20099;-62
2022/01/14 03:07:25;;;;;;;36.23;14.20;;;;;;;-0.53;100.00;97427.91;5052863;28;20305;-62
2022/01/14 03:09:53;;;;;;;38.20;17.37;;;;;;;-0.49;100.00;97429.50;5052460;28;20045;-62
2022/01/14 03:12:20;;;;;;;36.77;16.20;;;;;;;-0.48;100.00;97444.97;5052903;28;20072;-62
2022/01/14 03:14:47;;;;;;;33.40;14.03;;;;;;;-0.47;100.00;97428.56;5052489;28;20059;-62
2022/01/14 03:17:14;;;;;;;30.40;15.10;;;;;;;-0.45;100.00;97450.03;5052284;28;20041;-61
2022/01/14 03:19:41;;;;;;;38.73;16.00;;;;;;;-0.45;100.00;97425.94;5052868;28;20064;-62
2022/01/14 03:22:19;;;;;;;32.93;14.17;;;;;;;-0.49;100.00;97409.69;5052327;28;20486;-61
2022/01/14 03:27:34;;;;;;;32.03;13.93;;;;;;;-0.50;100.00;97399.41;5052156;28;20052;-61
2022/01/14 03:30:01;;;;;;;32.57;13.87;;;;;;;-0.50;100.00;97402.00;5052355;28;20056;-61
2022/01/14 03:32:28;;;;;;;33.10;14.67;;;;;;;-0.50;100.00;97407.97;5052648;28;20522;-61
2022/01/14 03:34:55;;;;;;;26.93;12.23;;;;;;;-0.50;100.00;97396.81;5052322;28;20764;-62
2022/01/14 03:37:22;;;;;;;34.03;15.47;;;;;;;-0.49;100.00;97394.19;5050471;28;20123;-61
2022/01/14 03:39:49;;;;;;;33.37;14.20;;;;;;;-0.51;100.00;97374.44;5052487;28;20049;-61
2022/01/14 03:42:16;;;;;;;31.20;15.90;;;;;;;-0.52;100.00;97389.13;5051154;28;20060;-60
2022/01/14 03:44:45;;;;;;;28.10;14.70;;;;;;;-0.52;100.00;97377.94;5052318;28;20045;-60
2022/01/14 03:47:12;;;;;;;34.67;15.60;;;;;;;-0.50;100.00;97384.72;5051631;28;20140;-61
2022/01/14 03:49:39;;;;;;;28.30;12.53;;;;;;;-0.48;100.00;97390.72;5052236;28;20051;-61
2022/01/14 03:52:06;;;;;;;32.97;13.77;;;;;;;-0.44;100.00;97412.97;5051160;28;20045;-62
2022/01/14 03:54:33;;;;;;;29.87;13.30;;;;;;;-0.44;100.00;97369.06;5051685;28;20068;-62
2022/01/14 03:57:00;;;;;;;28.33;15.07;;;;;;;-0.40;100.00;97365.47;5052085;28;20045;-61
2022/01/14 03:59:27;;;;;;;27.67;13.23;;;;;;;-0.44;100.00;97376.81;5052023;28;20437;-62
2022/01/14 04:01:56;;;;;;;26.90;12.83;;;;;;;-0.42;100.00;97372.44;5052274;28;20052;-62
2022/01/14 04:04:23;;;;;;;26.17;11.73;;;;;;;-0.40;100.00;97367.19;5051424;28;20799;-61
2022/01/14 04:06:50;;;;;;;23.07;9.77;;;;;;;-0.39;100.00;97362.00;5046369;28;20045;-61
2022/01/14 04:09:17;;;;;;;20.80;8.93;;;;;;;-0.38;100.00;97358.53;5051747;28;20140;-62
2022/01/14 04:11:45;;;;;;;17.37;9.83;;;;;;;-0.37;100.00;97347.28;5051694;28;20136;-61
2022/01/14 04:16:54;;;;;;;16.30;8.67;;;;;;;-0.38;100.00;97334.41;5045075;28;20115;-61
2022/01/14 04:19:22;;;;;;;16.63;9.97;;;;;;;-0.39;100.00;97349.06;5052386;28;20052;-61
2022/01/14 04:21:49;;;;;;;22.77;10.23;;;;;;;-0.39;100.00;97343.06;5052661;28;20045;-61
2022/01/14 04:24:16;;;;;;;19.73;8.60;;;;;;;-0.43;100.00;97355.22;5051135;28;20053;-61
2022/01/14 04:26:43;;;;;;;20.53;9.60;;;;;;;-0.40;100.00;97342.22;5050901;28;20087;-61
2022/01/14 04:29:10;;;;;;;18.77;9.43;;;;;;;-0.40;100.00;97341.38;5051120;28;20040;-61
2022/01/14 04:31:37;;;;;;;21.03;9.37;;;;;;;-0.39;100.00;97343.91;5051252;28;20037;-61
2022/01/14 04:34:04;;;;;;;22.00;10.33;;;;;;;-0.42;100.00;97349.19;5050926;28;20417;-61
2022/01/14 04:36:33;;;;;;;16.43;8.63;;;;;;;-0.42;100.00;97353.50;5051204;28;20044;-61
2022/01/14 04:38:59;;;;;;;18.07;9.10;;;;;;;-0.43;100.00;97269.97;5051450;28;20040;-62
2022/01/14 04:41:26;;;;;;;18.00;8.97;;;;;;;-0.46;100.00;97342.41;5052342;28;20501;-62
2022/01/14 04:43:53;;;;;;;13.67;6.93;;;;;;;-0.44;100.00;97285.53;5050798;28;20071;-62
2022/01/14 04:46:49;;;;;;;22.07;9.20;;;;;;;-0.44;100.00;97324.28;5050938;28;20045;-61
2022/01/14 04:49:16;;;;;;;16.80;8.00;;;;;;;-0.45;100.00;97307.94;5051320;28;20044;-62
2022/01/14 04:51:45;;;;;;;19.17;9.23;;;;;;;-0.49;100.00;97301.19;5051286;28;20057;-62
2022/01/14 04:54:12;;;;;;;20.53;9.73;;;;;;;-0.50;100.00;97332.25;5050725;28;20051;-61
2022/01/14 04:56:39;;;;;;;21.83;12.00;;;;;;;-0.49;100.00;97316.69;5050695;28;20604;-62
2022/01/14 04:59:06;;;;;;;19.73;10.93;;;;;;;-0.54;100.00;97330.66;5050360;28;20405;-62
2022/01/14 05:01:33;;;;;;;27.57;12.83;;;;;;;-0.55;100.00;97321.19;5052222;28;20045;-62
2022/01/14 05:04:00;;;;;;;28.87;14.53;;;;;;;-0.49;100.00;97328.75;5050528;28;20059;-62
2022/01/14 05:06:28;;;;;;;22.67;11.50;;;;;;;-0.55;100.00;97313.44;5051160;28;20044;-62
2022/01/14 05:08:57;;;;;;;30.23;13.53;;;;;;;-0.58;100.00;97293.72;5047882;28;20529;-63
2022/01/14 05:11:37;;;;;;;30.27;13.37;;;;;;;-0.59;100.00;97328.19;5050929;28;20076;-61
2022/01/14 05:14:04;;;;;;;32.70;13.53;;;;;;;-0.65;100.00;97294.81;5049064;28;20462;-64
2022/01/14 05:16:31;;;;;;;26.20;13.43;;;;;;;-0.65;100.00;97284.47;5050721;28;20047;-62
2022/01/14 05:18:58;;;;;;;26.80;12.50;;;;;;;-0.64;100.00;97296.53;5050045;28;20045;-63
2022/01/14 05:21:25;;;;;;;28.37;13.93;;;;;;;-0.67;100.00;97275.94;5050753;28;20516;-62
2022/01/14 05:23:52;;;;;;;25.00;11.83;;;;;;;-0.66;100.00;97275.03;5050103;28;20065;-62
2022/01/14 05:26:20;;;;;;;27.03;13.60;;;;;;;-0.67;100.00;97286.28;5050104;28;20485;-62
2022/01/14 05:28:47;;;;;;;29.83;14.83;;;;;;;-0.62;100.00;97274.06;5049794;28;20041;-63
2022/01/14 05:31:14;;;;;;;24.57;11.83;;;;;;;-0.64;100.00;97278.44;5050313;28;20059;-62
2022/01/14 05:33:45;;;;;;;30.07;12.13;;;;;;;-0.65;100.00;97279.31;5050221;28;20121;-62
2022/01/14 05:36:13;;;;;;;27.47;13.27;;;;;;;-0.63;100.00;97262.03;5048663;28;20053;-62
2022/01/14 05:38:40;;;;;;;26.30;12.23;;;;;;;-0.63;100.00;97259.47;5049806;28;20041;-62
2022/01/14 05:41:07;;;;;;;27.23;12.43;;;;;;;-0.62;100.00;97271.47;5047375;28;20068;-62
2022/01/14 05:43:36;;;;;;;31.07;13.90;;;;;;;-0.61;100.00;97262.81;5050887;28;20123;-63
2022/01/14 05:46:03;;;;;;;31.43;13.83;;;;;;;-0.62;100.00;97243.06;5049990;28;20049;-63
2022/01/14 05:48:30;;;;;;;29.03;13.37;;;;;;;-0.63;100.00;97254.28;5044781;28;20039;-63
2022/01/14 05:50:57;;;;;;;28.30;13.23;;;;;;;-0.63;100.00;97272.38;5049618;28;20048;-63
2022/01/14 05:53:24;;;;;;;29.03;13.10;;;;;;;-0.66;100.00;97272.47;5049486;28;20403;-63
2022/01/14 05:55:51;;;;;;;34.03;14.90;;;;;;;-0.66;100.00;97236.31;5048126;28;20458;-63
2022/01/14 05:58:18;;;;;;;33.43;13.00;;;;;;;-0.69;100.00;97256.25;5049000;28;20044;-63
2022/01/14 06:00:46;;;;;;;32.97;15.83;;;;;;;-0.67;100.00;97250.13;5049690;28;20120;-63
2022/01/14 06:03:13;;;;;;;33.00;14.83;;;;;;;-0.65;100.00;97239.75;5049359;28;20045;-63
2022/01/14 06:05:40;;;;;;;35.03;14.77;;;;;;;-0.66;100.00;97245.78;5051073;28;20068;-62
2022/01/14 06:08:07;;;;;;;34.17;15.90;;;;;;;-0.65;100.00;97238.00;5049760;28;20091;-63
2022/01/14 06:10:35;;;;;;;34.20;15.20;;;;;;;-0.63;100.00;97254.28;5049204;28;20083;-63
2022/01/14 06:13:02;;;;;;;26.00;12.67;;;;;;;-0.64;100.00;97234.53;5049231;28;20063;-63
2022/01/14 06:15:29;;;;;;;29.80;14.30;;;;;;;-0.66;100.00;97232.88;5049048;28;20124;-62
2022/01/14 06:17:58;;;;;;;29.57;13.97;;;;;;;-0.63;100.00;97249.13;5049425;28;20052;-62
2022/01/14 06:20:25;;;;;;;30.73;14.67;;;;;;;-0.66;100.00;97236.31;5049208;28;20041;-62
2022/01/14 06:22:52;;;;;;;35.20;15.80;;;;;;;-0.68;100.00;97220.00;5049710;28;20371;-62
2022/01/14 06:25:19;;;;;;;25.20;13.27;;;;;;;-0.73;100.00;97242.56;5048691;28;20048;-63
2022/01/14 06:27:46;;;;;;;33.10;15.27;;;;;;;-0.71;100.00;97251.13;5049487;28;20139;-62
2022/01/14 06:30:14;;;;;;;29.67;12.73;;;;;;;-0.71;100.00;97238.22;5049216;28;20417;-62
2022/01/14 06:32:42;;;;;;;28.00;13.50;;;;;;;-0.71;100.00;97233.03;5049195;28;20037;-62
2022/01/14 06:35:12;;;;;;;28.97;14.83;;;;;;;-0.67;100.00;97232.03;5049109;28;20048;-62
2022/01/14 06:37:39;;;;;;;35.20;13.73;;;;;;;-0.63;100.00;97188.88;5050252;28;20111;-62
2022/01/14 06:40:08;;;;;;;33.67;15.10;;;;;;;-0.61;100.00;97226.66;5048997;28;20151;-62
2022/01/14 06:42:35;;;;;;;42.20;15.83;;;;;;;-0.60;100.00;97225.78;5049167;28;20212;-62
2022/01/14 06:45:02;;;;;;;36.30;15.87;;;;;;;-0.57;100.00;97224.84;5048384;28;20068;-62
2022/01/14 06:47:29;;;;;;;33.87;15.33;;;;;;;-0.55;100.00;97226.47;5048386;28;20040;-62
2022/01/14 06:49:59;;;;;;;35.37;15.13;;;;;;;-0.55;100.00;97239.38;5050622;28;20037;-62
2022/01/14 06:52:28;;;;;;;28.00;14.63;;;;;;;-0.56;100.00;97235.13;5049118;28;20563;-63
2022/01/14 06:54:55;;;;;;;34.43;16.47;;;;;;;-0.57;100.00;97205.00;5044510;28;20500;-62
2022/01/14 06:57:24;;;;;;;31.00;13.93;;;;;;;-0.54;100.00;97215.22;5049124;28;20056;-62
2022/01/14 06:59:51;;;;;;;34.10;14.30;;;;;;;-0.51;100.00;97217.72;5048689;28;20036;-63
2022/01/14 07:02:18;;;;;;;34.03;16.27;;;;;;;-0.57;100.00;97199.00;5049216;28;20048;-63
2022/01/14 07:04:45;;;;;;;30.53;14.57;;;;;;;-0.59;100.00;97191.31;5048777;28;20037;-63
2022/01/14 07:07:12;;;;;;;28.37;12.80;;;;;;;-0.60;100.00;97196.53;5048622;28;20080;-63
2022/01/14 07:09:56;;;;;;;31.83;15.10;;;;;;;-0.59;100.00;97098.31;5048736;28;20048;-63
2022/01/14 07:12:24;;;;;;;36.08;15.93;;;;;;;-0.55;100.00;97184.28;5049085;28;20056;-63
2022/01/14 07:14:51;;;;;;;38.20;15.03;;;;;;;-0.58;100.00;97203.31;5047959;28;20390;-62
2022/01/14 07:17:18;;;;;;;38.90;15.60;;;;;;;-0.56;100.00;97200.69;5048923;28;20738;-62
2022/01/14 07:19:51;;;;;;;38.70;16.17;;;;;;;-0.58;100.00;97200.72;5046903;28;20047;-62
2022/01/14 07:22:18;;;;;;;36.63;15.63;;;;;;;-0.56;100.00;97188.63;5048791;28;20142;-63
2022/01/14 07:24:47;;;;;;;30.90;14.30;;;;;;;-0.52;100.00;97158.34;5049825;28;20095;-63
2022/01/14 07:27:15;;;;;;;34.20;14.13;;;;;;;-0.59;100.00;97230.06;5051471;28;20056;-63
2022/01/14 07:29:42;;;;;;;34.63;17.50;;;;;;;-0.56;100.00;97180.88;5051493;28;20128;-63
2022/01/14 07:32:09;;;;;;;27.47;14.23;;;;;;;-0.57;100.00;97188.69;5052315;28;20041;-63
2022/01/14 07:34:39;;;;;;;35.07;16.10;;;;;;;-0.52;100.00;97197.97;5052117;28;20087;-63
2022/01/14 07:37:06;;;;;;;37.00;14.90;;;;;;;-0.49;100.00;97187.53;5052391;28;20454;-63
2022/01/14 07:39:33;;;;;;;33.33;15.63;;;;;;;-0.54;100.00;97162.75;5050707;28;20067;-63
2022/01/14 07:42:02;;;;;;;41.83;18.50;;;;;;;-0.51;100.00;97173.81;5051920;28;20064;-63
2022/01/14 07:44:29;;;;;;;33.33;15.73;;;;;;;-0.48;100.00;97168.53;5050769;28;20044;-64
2022/01/14 07:46:56;;;;;;;28.17;13.40;;;;;;;-0.49;100.00;97191.84;5052006;28;20051;-63
2022/01/14 07:49:23;;;;;;;37.83;17.33;;;;;;;-0.42;100.00;97131.31;5053203;28;20132;-63
2022/01/14 07:51:50;;;;;;;44.17;16.67;;;;;;;-0.39;100.00;97185.47;5053180;28;20156;-63
2022/01/14 07:54:17;;;;;;;37.50;17.13;;;;;;;-0.40;100.00;97161.34;5051844;28;20460;-62
2022/01/14 07:56:48;;;;;;;52.50;19.97;;;;;;;-0.36;100.00;97167.28;5050573;28;20057;-63
2022/01/14 07:59:18;;;;;;;33.73;18.20;;;;;;;-0.34;100.00;97168.91;5052080;28;20041;-62
2022/01/14 08:01:50;;;;;;;30.90;14.37;;;;;;;-0.35;100.00;97162.03;5051604;28;21733;-63
2022/01/14 08:04:18;;;;;;;39.73;15.70;;;;;;;-0.33;100.00;97164.56;5063775;28;20123;-63
2022/01/14 08:06:47;;;;;;;38.57;15.43;;;;;;;-0.33;100.00;97164.56;5051760;28;20048;-63
2022/01/14 08:09:17;;;;;;;38.50;15.83;;;;;;;-0.28;100.00;97155.75;5051847;28;20524;-63
2022/01/14 08:11:45;;;;;;;32.93;15.60;;;;;;;-0.21;100.00;97130.56;5051172;28;20045;-63
2022/01/14 08:14:13;;;;;;;30.80;13.20;;;;;;;-0.22;100.00;97154.69;5051305;28;20124;-63
2022/01/14 08:16:41;;;;;;;29.47;14.27;;;;;;;-0.22;100.00;97141.78;5049116;28;20041;-62
2022/01/14 08:19:08;;;;;;;34.17;15.07;;;;;;;-0.27;100.00;97159.19;5049762;28;20127;-62
2022/01/14 08:21:35;;;;;;;27.27;12.97;;;;;;;-0.25;100.00;97160.00;5050183;28;20413;-62
2022/01/14 08:24:03;;;;;;;29.97;14.50;;;;;;;-0.25;100.00;97153.06;5050247;28;20080;-62
2022/01/14 08:26:30;;;;;;;24.60;12.93;;;;;;;-0.24;100.00;97143.59;5050237;28;20041;-62
2022/01/14 08:28:57;;;;;;;30.87;14.07;;;;;;;-0.20;100.00;97163.25;5049814;28;20851;-63
2022/01/14 08:31:24;;;;;;;27.77;13.00;;;;;;;-0.24;100.00;97147.00;5047109;28;20466;-63
2022/01/14 08:33:52;;;;;;;28.03;14.50;;;;;;;-0.18;100.00;97149.38;5047928;28;20543;-62
2022/01/14 08:36:20;;;;;;;27.10;13.83;;;;;;;-0.15;100.00;97135.47;5049479;28;20033;-63
2022/01/14 08:38:47;;;;;;;26.83;14.67;;;;;;;-0.11;100.00;97137.91;5048986;28;20041;-63
2022/01/14 08:41:14;;;;;;;36.07;15.70;;;;;;;-0.16;100.00;97137.25;5049488;28;20044;-62
2022/01/14 08:43:41;;;;;;;35.20;15.10;;;;;;;-0.19;100.00;97134.75;5049201;28;20133;-64
2022/01/14 08:46:08;;;;;;;33.13;14.57;;;;;;;-0.13;100.00;97131.13;5049064;28;20049;-62
2022/01/14 08:48:35;;;;;;;30.00;13.93;;;;;;;-0.10;100.00;97093.06;5049695;28;20049;-63
2022/01/14 08:51:04;;;;;;;36.37;15.40;;;;;;;-0.08;100.00;97095.59;5048682;28;20406;-64
2022/01/14 08:53:31;;;;;;;38.50;15.90;;;;;;;-0.03;100.00;97093.66;5049554;28;20068;-63
2022/01/14 08:55:58;;;;;;;30.90;13.17;;;;;;;0.03;100.00;97096.03;5049517;28;20113;-64
2022/01/14 08:58:25;;;;;;;31.57;15.77;;;;;;;0.02;100.00;97115.88;5049043;28;20151;-64
2022/01/14 09:00:52;;;;;;;37.53;15.57;;;;;;;0.07;100.00;97101.03;5049288;28;20131;-63
2022/01/14 09:03:19;;;;;;;30.70;15.87;;;;;;;0.16;100.00;97110.19;5048249;28;20371;-63
2022/01/14 09:05:47;;;;;;;35.10;15.87;;;;;;;0.16;100.00;97107.63;5049049;28;20037;-62
2022/01/14 09:08:15;;;;;;;29.40;13.80;;;;;;;0.18;100.00;97082.53;5048857;28;20059;-62
2022/01/14 09:10:42;;;;;;;30.23;12.87;;;;;;;0.16;100.00;97111.03;5049533;28;20049;-62
2022/01/14 09:13:09;;;;;;;31.97;13.73;;;;;;;0.19;100.00;97094.53;5048774;28;20052;-62
2022/01/14 09:15:36;;;;;;;32.10;14.30;;;;;;;0.19;100.00;97076.44;5048584;28;20556;-62
2022/01/14 09:18:04;;;;;;;28.27;13.10;;;;;;;0.29;100.00;97104.50;5049056;28;20472;-63
2022/01/14 09:20:32;;;;;;;23.53;12.13;;;;;;;0.18;100.00;97075.63;5048774;28;20079;-63
2022/01/14 09:22:59;;;;;;;32.97;11.87;;;;;;;0.18;100.00;97049.75;5049674;28;20055;-64
2022/01/14 09:25:27;;;;;;;26.13;11.63;;;;;;;0.23;100.00;97045.22;5050507;28;20128;-63
2022/01/14 09:27:54;;;;;;;31.20;13.67;;;;;;;0.22;100.00;97068.56;5049057;28;20527;-63
2022/01/14 09:30:23;;;;;;;23.20;11.53;;;;;;;0.22;100.00;97058.22;5048368;28;20048;-62
2022/01/14 09:32:51;;;;;;;21.20;10.80;;;;;;;0.18;100.00;97067.00;5048386;28;20045;-62
2022/01/14 09:35:18;;;;;;;21.00;11.23;;;;;;;0.23;100.00;97050.41;5048605;28;20530;-62
2022/01/14 09:37:45;;;;;;;26.23;14.47;;;;;;;0.24;100.00;97028.81;5048448;28;20051;-65
2022/01/14 09:40:14;;;;;;;23.40;10.93;;;;;;;0.27;100.00;97057.16;5048142;28;20041;-65
2022/01/14 09:42:47;;;;;;;19.73;8.90;;;;;;;0.26;100.00;97042.53;5047871;28;20036;-66
2022/01/14 09:45:14;;;;;;;23.57;12.50;;;;;;;0.28;100.00;97007.13;5048392;28;20040;-64
2022/01/14 09:47:42;;;;;;;23.33;11.43;;;;;;;0.23;100.00;97018.56;5048557;28;20390;-65
2022/01/14 09:50:10;;;;;;;28.40;13.27;;;;;;;0.29;100.00;97013.13;5049531;28;20040;-65
2022/01/14 09:52:37;;;;;;;35.70;12.17;;;;;;;0.32;100.00;97024.19;5048933;28;20128;-65
2022/01/14 09:55:04;;;;;;;20.57;10.27;;;;;;;0.29;100.00;96990.69;5049047;28;20497;-65
2022/01/14 09:57:31;;;;;;;20.43;11.40;;;;;;;0.29;100.00;96977.75;5049596;28;20045;-66
2022/01/14 10:00:00;;;;;;;19.70;11.53;;;;;;;0.26;100.00;96982.19;5049713;28;20044;-65
2022/01/14 10:02:33;;;;;;;19.27;10.13;;;;;;;0.31;100.00;96975.94;5050151;28;20375;-65
2022/01/14 10:05:00;;;;;;;24.80;11.02;;;;;;;0.28;100.00;96952.81;5049640;28;20037;-65
2022/01/14 10:07:29;;;;;;;21.43;11.10;;;;;;;0.23;100.00;96975.41;5048989;28;20045;-66
2022/01/14 10:09:58;;;;;;;26.27;12.90;;;;;;;0.25;100.00;96980.53;5051359;28;20037;-67
2022/01/14 10:12:27;;;;;;;24.37;11.80;;;;;;;0.16;100.00;96979.13;5050627;28;20137;-62
2022/01/14 10:14:57;;;;;;;24.17;10.93;;;;;;;0.17;100.00;96982.56;5048662;28;20132;-62
2022/01/14 10:17:26;;;;;;;20.23;11.03;;;;;;;0.16;100.00;96968.78;5049773;28;20045;-69
2022/01/14 10:19:53;;;;;;;21.67;11.87;;;;;;;0.12;100.00;96994.84;5049401;28;20112;-71
2022/01/14 10:22:24;;;;;;;20.77;11.60;;;;;;;0.11;100.00;96975.91;5048995;28;20052;-71
2022/01/14 10:24:55;;;;;;;17.20;10.17;;;;;;;0.09;100.00;96976.88;5049022;28;20057;-70
2022/01/14 10:27:33;;;;;;;31.00;11.93;;;;;;;0.11;100.00;96954.38;5050317;28;20064;-70
2022/01/14 10:30:09;;;;;;;21.67;10.30;;;;;;;0.09;100.00;96964.75;5049647;28;20044;-70
2022/01/14 10:32:38;;;;;;;19.83;9.20;;;;;;;0.07;100.00;96948.50;5048005;28;20438;-68
2022/01/14 10:35:06;;;;;;;24.73;9.17;;;;;;;0.10;100.00;96961.31;5048643;28;20124;-69
2022/01/14 10:37:35;;;;;;;26.77;11.33;;;;;;;0.12;100.00;96951.72;5049167;28;20048;-70
2022/01/14 10:40:05;;;;;;;19.17;9.90;;;;;;;0.11;100.00;96947.47;5049066;28;20048;-71
2022/01/14 10:42:34;;;;;;;17.90;9.60;;;;;;;0.11;100.00;96990.56;5048083;28;20071;-70
2022/01/14 10:45:18;;;;;;;21.13;12.30;;;;;;;0.02;100.00;96937.47;5048301;28;20041;-68
2022/01/14 10:47:54;;;;;;;17.75;9.38;;;;;;;0.04;100.00;96889.16;5049007;28;20500;-70
2022/01/14 10:50:31;;;;;;;23.27;11.07;;;;;;;0.01;100.00;96917.69;5048793;28;20116;-70
2022/01/14 10:52:58;;;;;;;23.00;11.70;;;;;;;0.08;100.00;96932.06;5050134;28;20037;-67
2022/01/14 10:55:30;;;;;;;21.27;11.20;;;;;;;0.00;100.00;96923.78;5050031;28;20132;-68
2022/01/14 10:57:58;;;;;;;25.53;12.43;;;;;;;-0.03;100.00;96923.06;5048771;28;20048;-67
2022/01/14 11:00:26;;;;;;;22.00;10.73;;;;;;;-0.03;100.00;96903.22;5049043;28;20045;-69
2022/01/14 11:02:56;;;;;;;19.20;10.27;;;;;;;-0.08;100.00;96905.16;5050592;28;20119;-62
2022/01/14 11:05:24;;;;;;;22.93;11.43;;;;;;;-0.09;100.00;96885.38;5052808;28;20421;-67
2022/01/14 11:07:52;;;;;;;27.23;11.47;;;;;;;-0.12;100.00;96918.25;5052386;28;20126;-67
2022/01/14 11:10:23;;;;;;;25.97;11.80;;;;;;;-0.13;100.00;96896.72;5052803;28;20037;-68
2022/01/14 11:12:51;;;;;;;27.50;12.30;;;;;;;-0.18;100.00;96906.41;5052810;28;20043;-67
2022/01/14 11:15:18;;;;;;;21.17;10.20;;;;;;;-0.15;100.00;96906.31;5051901;28;20041;-66
2022/01/14 11:17:51;;;;;;;23.37;13.20;;;;;;;-0.12;100.00;96905.34;5052468;28;20533;-67
2022/01/14 11:20:25;;;;;;;30.67;14.33;;;;;;;-0.09;100.00;96892.31;5051943;28;20124;-67
2022/01/14 11:25:40;;;;;;;25.97;11.07;;;;;;;-0.21;100.00;96883.28;5050615;28;20037;-68
2022/01/14 11:28:12;;;;;;;22.23;11.47;;;;;;;-0.21;100.00;96887.63;5049936;28;20045;-67
2022/01/14 11:30:41;;;;;;;27.97;13.47;;;;;;;-0.19;100.00;96891.81;5050835;28;20118;-67
2022/01/14 11:33:09;;;;;;;19.83;10.00;;;;;;;-0.20;100.00;96882.41;5051135;28;20525;-66
2022/01/14 11:35:39;;;;;;;23.40;12.93;;;;;;;-0.18;100.00;96877.13;5051488;28;20128;-71